Greenpond, New Jersey
Current Conditions -  °F | °C
As of 9:53 AM on Thursday 30 Oct 2014 (Local Time) from KFWN Reporting Station
Haze Haze  
Wind Chill: 43°   Ceiling: 200
Heat Index: 45°   Visibility: 2.5mi
Dew Point: 43°   Wind: 5mph
Humidity: 93%   Direction: 230°SW
Pressure: 30.02"   Gusts: NA
Location:  41.058°N, 74.4257°W
Report Text: KFWN 301353Z AUTO 23004KT 2 1/2SM BR BKN002 07/06 A3002 RMK AO2 SLP165 T00720061
Loading
Personal Weather Stations






























Interactive Weather Map
Tropical Storm Tracking
New forecast layout! Learn more

10-Day Weather Forecast

Advertisements
Track Severe Weather on mobile